Time;durP1;ratioP1;P1;durP2;ratioP2;P2;SDS_P1;SDS_P2;PMS_P1;PMS_P2;Temp;Humidity;BMP_temperature;BMP_pressure;BME280_temperature;BME280_humidity;BME280_pressure;Samples;Min_cycle;Max_cycle;Signal;HPM_P1;HPM_P2
2022/07/06 06:18:04;;;;;;;8.80;3.38;;;;;;;17.04;58.86;97233.25;2100324;27;20559;-66
2022/07/06 06:19:06;;;;;;;10.23;2.97;;;;;;;17.25;58.30;97239.00;2102889;28;20366;-66
2022/07/06 06:20:10;;;;;;;11.18;2.95;;;;;;;17.27;58.15;97237.94;2098349;28;20694;-66
2022/07/06 06:21:12;;;;;;;12.25;2.90;;;;;;;17.40;57.83;97238.03;2095428;28;20306;-66
2022/07/06 06:22:14;;;;;;;15.43;2.92;;;;;;;17.53;57.12;97239.88;2095246;28;20192;-67
2022/07/06 06:23:15;;;;;;;8.27;2.63;;;;;;;17.62;56.42;97236.66;2090847;28;20218;-67
2022/07/06 06:24:17;;;;;;;11.90;3.05;;;;;;;17.75;55.88;97226.16;2102938;28;20187;-67
2022/07/06 06:25:27;;;;;;;5.00;2.60;;;;;;;17.83;55.96;97233.59;2096864;28;20210;-67
2022/07/06 06:26:28;;;;;;;16.17;3.70;;;;;;;18.07;55.66;97237.31;2094049;28;20202;-67
2022/07/06 06:27:29;;;;;;;7.53;2.53;;;;;;;18.25;55.41;97240.53;2095178;28;20207;-67
2022/07/06 06:48:25;;;;;;;6.90;2.70;;;;;;;17.73;55.87;97257.94;2084216;28;20559;-66
2022/07/06 06:49:27;;;;;;;9.98;3.08;;;;;;;17.99;55.05;97260.75;2082247;28;20188;-66
2022/07/06 06:50:28;;;;;;;7.13;2.60;;;;;;;18.01;55.08;97263.28;2079653;28;20211;-67
2022/07/06 06:51:30;;;;;;;6.90;3.00;;;;;;;18.14;54.46;97258.88;2082841;28;20557;-67
2022/07/06 06:52:31;;;;;;;8.30;2.40;;;;;;;18.39;54.34;97252.81;2077702;28;20228;-67
2022/07/06 06:53:41;;;;;;;10.73;2.78;;;;;;;18.65;53.36;97241.44;2082949;28;20297;-65
2022/07/06 06:54:43;;;;;;;12.13;2.88;;;;;;;18.71;53.06;97251.59;2082607;28;20227;-65
2022/07/06 06:55:44;;;;;;;11.95;3.17;;;;;;;18.69;52.86;97250.84;2083524;28;20197;-65
2022/07/06 06:56:46;;;;;;;13.32;2.90;;;;;;;18.62;54.03;97253.06;2077159;28;20192;-65
2022/07/06 06:57:47;;;;;;;5.40;2.10;;;;;;;18.61;53.16;97256.66;2072403;28;20231;-65
2022/07/06 06:58:49;;;;;;;9.23;2.90;;;;;;;18.68;53.13;97250.00;2090599;28;20196;-67
2022/07/06 07:19:08;;;;;;;6.82;1.90;;;;;;;19.17;51.93;97243.19;2085407;28;20556;-66
2022/07/06 07:20:10;;;;;;;6.38;2.28;;;;;;;19.33;51.42;97244.75;2084786;28;20212;-65
2022/07/06 07:21:11;;;;;;;6.22;2.05;;;;;;;19.33;51.82;97240.28;2084732;28;20192;-66
2022/07/06 07:22:13;;;;;;;8.10;3.60;;;;;;;19.36;51.31;97245.38;2083940;28;20294;-66
2022/07/06 07:23:14;;;;;;;7.95;2.70;;;;;;;19.39;51.23;97242.50;2076368;28;20215;-66
2022/07/06 07:24:16;;;;;;;9.73;2.95;;;;;;;19.41;51.02;97237.94;2090234;28;20206;-66
2022/07/06 07:25:17;;;;;;;8.70;2.75;;;;;;;18.95;51.98;97248.28;2079605;28;20204;-66
2022/07/06 07:26:19;;;;;;;10.77;3.78;;;;;;;19.00;52.15;97244.34;2072812;28;20199;-66
2022/07/06 07:43:00;;;;;;;6.15;2.47;;;;;;;20.24;49.30;97238.19;2091221;27;20574;-65
2022/07/06 07:44:01;;;;;;;24.25;2.70;;;;;;;20.19;49.73;97241.19;2100882;28;20196;-65
2022/07/06 07:45:03;;;;;;;7.35;2.72;;;;;;;20.35;49.46;97245.34;2092961;28;20202;-65
2022/07/06 07:46:05;;;;;;;5.30;2.15;;;;;;;20.06;49.02;97235.94;2091370;28;20191;-65
2022/07/06 07:47:06;;;;;;;7.15;2.95;;;;;;;20.04;49.57;97234.38;2094466;28;20718;-66
2022/07/06 07:48:09;;;;;;;7.25;2.85;;;;;;;20.38;48.86;97229.22;2081171;28;20228;-66
2022/07/06 07:49:12;;;;;;;10.30;2.83;;;;;;;20.37;48.37;97223.03;2082034;28;20203;-66
2022/07/06 07:50:21;;;;;;;9.90;2.65;;;;;;;20.76;48.38;97233.44;2083259;28;20196;-69
2022/07/06 07:51:23;;;;;;;13.38;3.00;;;;;;;20.92;47.67;97235.72;2084907;28;20200;-69
2022/07/06 08:07:52;;;;;;;10.98;2.58;;;;;;;20.96;47.54;97245.16;2096519;27;21086;-68
2022/07/06 08:08:53;;;;;;;9.05;2.63;;;;;;;20.77;48.01;97236.91;2090224;28;20193;-68
2022/07/06 08:09:55;;;;;;;7.95;2.90;;;;;;;20.98;47.31;97239.72;2091010;28;20195;-68
2022/07/06 08:10:57;;;;;;;7.22;3.00;;;;;;;20.79;47.92;97214.59;2091455;28;20841;-69
2022/07/06 08:12:18;;;;;;;6.18;2.60;;;;;;;21.11;47.94;97248.41;2089191;28;20200;-69
2022/07/06 08:13:19;;;;;;;7.90;3.22;;;;;;;20.95;47.25;97247.91;2079639;28;20228;-69
2022/07/06 08:14:21;;;;;;;8.38;2.70;;;;;;;20.63;47.98;97236.16;2089051;28;20663;-69
2022/07/06 08:15:22;;;;;;;5.10;2.75;;;;;;;20.62;48.72;97239.75;2082843;28;20611;-69
2022/07/06 08:16:24;;;;;;;12.35;2.85;;;;;;;21.06;48.06;97244.44;2083921;28;20192;-69
2022/07/06 08:17:25;;;;;;;11.88;3.15;;;;;;;21.48;47.25;97236.69;2084056;28;20241;-69
2022/07/06 08:18:27;;;;;;;8.45;2.78;;;;;;;21.50;46.62;97254.22;2071780;28;20587;-69
2022/07/06 08:35:44;;;;;;;6.93;2.83;;;;;;;21.43;47.08;97229.09;2082899;28;20896;-68
2022/07/06 08:36:46;;;;;;;11.57;3.55;;;;;;;21.48;46.85;97236.69;2084100;28;20236;-70
2022/07/06 08:37:47;;;;;;;7.03;3.40;;;;;;;21.63;46.43;97229.34;2074171;28;20228;-71
2022/07/06 08:38:49;;;;;;;8.98;3.35;;;;;;;21.76;45.89;97242.50;2086735;28;20234;-71
2022/07/06 08:39:50;;;;;;;23.88;4.13;;;;;;;21.48;46.24;97232.25;2085481;28;20295;-71
2022/07/06 08:40:52;;;;;;;7.50;3.63;;;;;;;21.05;46.78;97193.13;2073741;28;20196;-71
2022/07/06 08:41:56;;;;;;;11.65;3.38;;;;;;;21.41;47.17;97231.03;2075949;28;20208;-71
2022/07/06 08:42:59;;;;;;;6.75;2.80;;;;;;;21.85;45.94;97244.38;2068958;28;20227;-70
2022/07/06 08:44:01;;;;;;;11.70;3.38;;;;;;;22.22;45.89;97244.06;2090302;28;20203;-71
2022/07/06 08:45:06;;;;;;;9.20;2.70;;;;;;;22.39;45.25;97240.00;2083717;28;20524;-71
2022/07/06 08:46:08;;;;;;;9.18;1.90;;;;;;;22.76;44.98;97239.56;2065367;28;20198;-71
2022/07/06 08:47:10;;;;;;;7.55;2.28;;;;;;;22.89;44.20;97244.69;2061883;28;20245;-70
2022/07/06 08:48:12;;;;;;;25.70;3.72;;;;;;;22.43;44.63;97240.59;2073037;28;20217;-71
2022/07/06 08:49:15;;;;;;;7.85;2.05;;;;;;;22.53;44.59;97241.50;2071317;28;20806;-71
2022/07/06 08:50:17;;;;;;;8.60;2.22;;;;;;;22.45;44.62;97233.34;2072501;28;20204;-71
2022/07/06 08:51:19;;;;;;;7.88;2.20;;;;;;;22.21;45.63;97242.38;2075816;28;20196;-71
2022/07/06 09:09:58;;;;;;;7.78;3.33;;;;;;;22.70;43.75;97249.91;2090960;28;21082;-70
2022/07/06 09:11:00;;;;;;;7.80;3.40;;;;;;;22.61;44.34;97263.03;2092018;28;20184;-70
2022/07/06 09:12:02;;;;;;;7.72;3.70;;;;;;;22.55;43.32;97252.03;2089820;28;20200;-71
2022/07/06 09:13:06;;;;;;;7.90;2.85;;;;;;;22.52;44.40;97260.28;2079763;28;20756;-70
2022/07/06 09:14:07;;;;;;;19.70;4.55;;;;;;;22.83;43.69;97253.22;2092732;28;20195;-70
2022/07/06 09:15:09;;;;;;;19.65;3.25;;;;;;;22.94;43.59;97257.59;2085450;28;20200;-70
2022/07/06 09:16:12;;;;;;;7.65;3.15;;;;;;;22.99;42.70;97258.91;2083533;28;20200;-71
2022/07/06 09:17:39;;;;;;;5.80;2.35;;;;;;;22.90;43.63;97251.69;2075994;28;20212;-70
2022/07/06 09:18:44;;;;;;;4.38;1.92;;;;;;;22.45;44.04;97255.47;2089786;28;20218;-71
2022/07/06 09:19:46;;;;;;;4.63;2.38;;;;;;;22.54;44.11;97261.84;2085809;28;20214;-70
2022/07/06 09:20:48;;;;;;;27.95;2.67;;;;;;;22.85;43.91;97256.56;2083881;28;20197;-70
2022/07/06 09:21:50;;;;;;;19.23;3.22;;;;;;;23.27;42.92;97264.56;2083887;28;20803;-70
2022/07/06 09:22:59;;;;;;;5.55;2.55;;;;;;;22.88;43.20;97256.31;2071605;28;20763;-71
2022/07/06 09:24:02;;;;;;;9.60;3.00;;;;;;;23.30;43.34;97244.78;2077618;28;20197;-71
2022/07/06 09:25:15;;;;;;;9.88;2.60;;;;;;;23.30;43.11;97260.78;2075009;28;20711;-70
2022/07/06 09:26:16;;;;;;;9.73;3.15;;;;;;;23.06;43.21;97259.22;2073090;28;20678;-71
2022/07/06 09:27:18;;;;;;;7.72;3.00;;;;;;;23.04;43.15;97260.34;2073778;28;20197;-70
2022/07/06 09:28:20;;;;;;;7.88;2.92;;;;;;;23.20;42.42;97267.84;2074265;28;20355;-71
2022/07/06 09:29:28;;;;;;;7.72;2.83;;;;;;;22.98;42.59;97257.22;2073562;28;20632;-71
2022/07/06 09:30:29;;;;;;;11.40;3.20;;;;;;;22.62;43.74;97264.69;2074793;28;20197;-71
2022/07/06 09:31:31;;;;;;;6.20;2.80;;;;;;;22.91;43.71;97264.03;2075393;28;20675;-71
2022/07/06 09:32:45;;;;;;;12.05;3.10;;;;;;;23.33;42.91;97262.34;2062199;28;20713;-70
2022/07/06 09:34:05;;;;;;;7.00;2.65;;;;;;;23.67;42.42;97267.34;2080743;28;20191;-70
2022/07/06 09:35:08;;;;;;;5.70;3.03;;;;;;;23.37;42.50;97261.09;2076578;28;20277;-71
2022/07/06 09:36:09;;;;;;;9.43;3.45;;;;;;;23.50;42.26;97274.16;2074250;28;20198;-71
2022/07/06 09:37:13;;;;;;;5.93;2.83;;;;;;;23.55;40.70;97261.28;2076578;28;20591;-71
2022/07/06 09:38:15;;;;;;;8.73;3.20;;;;;;;23.78;41.13;97270.75;2070087;28;20225;-70
2022/07/06 09:39:28;;;;;;;6.85;3.58;;;;;;;23.95;40.69;97268.44;2084416;28;20554;-71
2022/07/06 09:40:32;;;;;;;14.55;2.90;;;;;;;23.97;40.97;97269.13;2073261;28;20197;-71
2022/07/06 09:41:35;;;;;;;12.68;3.15;;;;;;;24.00;40.70;97270.69;2073982;28;20201;-71
2022/07/06 09:42:37;;;;;;;10.98;3.75;;;;;;;23.84;40.81;97269.38;2064146;28;20209;-71
2022/07/06 09:43:38;;;;;;;16.35;3.83;;;;;;;23.82;40.66;97266.00;2082291;28;20192;-71
2022/07/06 09:44:41;;;;;;;8.65;3.00;;;;;;;23.53;41.67;97266.75;2080318;28;20727;-70
2022/07/06 09:45:45;;;;;;;9.55;3.10;;;;;;;23.94;41.27;97264.09;2073628;28;20205;-71
2022/07/06 09:46:47;;;;;;;8.45;2.65;;;;;;;24.26;41.01;97269.19;2074930;28;20205;-71
2022/07/06 09:47:49;;;;;;;7.22;2.78;;;;;;;23.94;41.38;97272.09;2074135;28;20205;-70
2022/07/06 09:48:52;;;;;;;14.85;3.45;;;;;;;24.43;40.44;97254.31;2075507;28;20198;-71
2022/07/06 09:49:55;;;;;;;9.30;2.63;;;;;;;24.71;40.28;97270.47;2074575;28;20201;-70
2022/07/06 09:51:02;;;;;;;18.65;3.65;;;;;;;24.66;38.34;97274.53;2073347;28;20914;-70
2022/07/06 09:52:06;;;;;;;7.63;2.95;;;;;;;24.52;39.78;97270.44;2072276;28;20610;-71
2022/07/06 09:53:07;;;;;;;7.00;2.95;;;;;;;24.41;39.62;97274.09;2063866;28;20221;-70
2022/07/06 09:54:09;;;;;;;9.77;3.00;;;;;;;24.18;40.30;97271.69;2079143;28;20200;-71
2022/07/06 10:16:37;;;;;;;7.97;2.80;;;;;;;24.40;40.43;97285.75;2106433;27;20547;-70
2022/07/06 10:17:40;;;;;;;7.55;2.95;;;;;;;24.20;40.34;97272.41;2094516;27;20657;-70
2022/07/06 10:18:43;;;;;;;13.65;3.50;;;;;;;23.44;41.82;97279.06;2111426;28;20731;-71
2022/07/06 10:19:46;;;;;;;14.10;4.10;;;;;;;23.56;41.39;97282.47;2107134;28;20195;-71
2022/07/06 10:20:48;;;;;;;6.57;3.50;;;;;;;24.00;40.45;97284.88;2094700;28;20301;-71
2022/07/06 10:21:54;;;;;;;10.20;3.95;;;;;;;24.25;40.21;97288.00;2103174;28;20677;-71
2022/07/06 10:22:58;;;;;;;12.10;4.90;;;;;;;23.72;40.70;97284.63;2098564;28;20213;-71
2022/07/06 10:24:01;;;;;;;9.75;3.30;;;;;;;23.94;40.92;97282.75;2102942;28;20845;-71
2022/07/06 10:25:04;;;;;;;6.75;3.03;;;;;;;24.18;40.35;97293.03;2098725;28;20195;-71
2022/07/06 10:26:07;;;;;;;6.78;3.03;;;;;;;24.04;39.41;97296.13;2090839;28;20192;-71
2022/07/06 10:27:15;;;;;;;13.38;2.88;;;;;;;24.43;40.30;97285.50;2089300;28;20204;-71
2022/07/06 10:28:19;;;;;;;9.13;3.20;;;;;;;24.86;39.41;97286.91;2093632;28;20717;-71
2022/07/06 10:29:20;;;;;;;9.43;3.25;;;;;;;24.94;38.63;97284.34;2095125;28;20215;-71
2022/07/06 10:30:24;;;;;;;11.07;3.95;;;;;;;24.49;38.87;97260.88;2095135;28;20554;-71
2022/07/06 10:31:28;;;;;;;8.55;2.80;;;;;;;24.76;38.87;97283.41;2094898;28;20199;-71
2022/07/06 10:32:29;;;;;;;7.07;2.45;;;;;;;24.96;39.38;97281.53;2094054;28;20207;-71
2022/07/06 10:33:33;;;;;;;9.18;3.17;;;;;;;24.84;38.93;97267.50;2084331;28;20321;-71
2022/07/06 10:34:36;;;;;;;11.70;2.95;;;;;;;24.91;38.48;97283.78;2093680;28;20192;-71
2022/07/06 10:35:40;;;;;;;9.90;2.72;;;;;;;25.10;38.67;97294.44;2094666;28;20236;-71
2022/07/06 10:36:44;;;;;;;10.43;4.28;;;;;;;24.87;38.25;97288.56;2094164;28;20239;-71
2022/07/06 10:38:03;;;;;;;6.65;3.25;;;;;;;24.82;38.69;97290.00;2088390;28;20198;-71
2022/07/06 10:41:02;;;;;;;8.68;3.30;;;;;;;24.88;39.19;97286.75;2110802;28;20202;-71
2022/07/06 10:41:52;;;;;;;11.68;3.75;;;;;;;24.96;38.65;97283.34;2093665;28;20207;-71
2022/07/06 10:43:01;;;;;;;4.70;3.03;;;;;;;24.43;39.36;97288.16;2090963;28;20229;-71
2022/07/06 10:44:20;;;;;;;10.70;3.28;;;;;;;24.27;39.57;97280.69;2110932;28;20195;-71
2022/07/06 10:45:28;;;;;;;19.88;3.63;;;;;;;24.39;39.64;97284.06;2097843;28;20188;-71
2022/07/06 10:46:33;;;;;;;7.13;2.90;;;;;;;24.17;38.98;97282.53;2094572;28;20188;-72
2022/07/06 10:47:35;;;;;;;9.40;2.72;;;;;;;24.65;38.94;97287.06;2094503;28;20227;-72
2022/07/06 10:48:39;;;;;;;7.15;3.28;;;;;;;25.28;37.68;97291.03;2093519;28;20203;-71
2022/07/06 10:49:49;;;;;;;12.77;2.85;;;;;;;25.31;38.08;97289.88;2094404;28;20666;-71
2022/07/06 10:51:02;;;;;;;7.50;3.13;;;;;;;25.54;37.73;97290.38;2094001;28;20206;-71
2022/07/06 10:52:04;;;;;;;7.40;2.90;;;;;;;26.00;37.04;97280.56;2094645;28;20211;-71
2022/07/06 10:53:11;;;;;;;8.05;3.67;;;;;;;25.24;37.71;97281.59;2094222;28;20639;-71
2022/07/06 10:54:13;;;;;;;7.30;2.85;;;;;;;25.74;37.29;97283.13;2110010;28;20206;-71
2022/07/06 10:55:38;;;;;;;12.95;3.38;;;;;;;25.81;37.85;97278.00;2099694;28;20589;-70
2022/07/06 10:56:48;;;;;;;44.00;23.70;;;;;;;26.18;37.29;97291.34;2094696;28;20216;-72
2022/07/06 10:57:52;;;;;;;16.92;10.30;;;;;;;26.51;36.63;97289.00;2088955;28;20199;-70
2022/07/06 10:58:54;;;;;;;13.63;5.22;;;;;;;26.45;36.33;97291.41;2110809;28;20557;-71
2022/07/06 11:00:05;;;;;;;31.27;17.63;;;;;;;26.37;37.05;97284.16;2104894;28;20195;-70
2022/07/06 11:01:09;;;;;;;10.23;2.72;;;;;;;26.17;36.22;97297.69;2094691;28;20253;-70
2022/07/06 11:02:15;;;;;;;7.05;2.58;;;;;;;26.41;36.28;97304.28;2093781;28;20321;-69
2022/07/06 11:03:46;;;;;;;8.02;3.47;;;;;;;25.70;35.67;97295.94;2094455;28;20306;-70
2022/07/06 11:04:49;;;;;;;12.40;3.75;;;;;;;25.57;36.21;97282.94;2094770;28;20215;-69
2022/07/06 11:05:58;;;;;;;7.40;3.75;;;;;;;24.67;37.87;97282.44;2093136;28;20203;-69
2022/07/06 11:07:15;;;;;;;11.25;3.65;;;;;;;24.88;38.38;97284.09;2093039;28;20743;-69
2022/07/06 11:08:17;;;;;;;14.88;3.00;;;;;;;25.61;38.15;97290.63;2095924;28;20337;-69
2022/07/06 11:09:18;;;;;;;9.70;3.45;;;;;;;24.49;38.95;97273.41;2110957;28;20202;-69
2022/07/06 11:10:22;;;;;;;5.93;2.90;;;;;;;24.54;39.94;97285.31;2098278;28;20200;-69
2022/07/06 11:11:32;;;;;;;7.53;2.40;;;;;;;24.88;39.79;97270.72;2094888;28;20415;-70
2022/07/06 11:12:35;;;;;;;10.43;3.42;;;;;;;25.25;39.11;97283.28;2085548;28;20195;-69
2022/07/06 11:13:43;;;;;;;5.78;3.22;;;;;;;25.29;38.00;97281.16;2110572;28;20198;-70
2022/07/06 11:14:46;;;;;;;6.75;3.35;;;;;;;25.43;37.71;97283.38;2107096;28;20194;-70
2022/07/06 11:15:48;;;;;;;11.90;4.60;;;;;;;25.58;36.75;97267.72;2094570;28;20192;-69
2022/07/06 11:16:49;;;;;;;14.90;4.10;;;;;;;25.45;36.56;97276.06;2096106;28;20208;-69
2022/07/06 11:18:10;;;;;;;5.65;3.35;;;;;;;25.81;37.64;97280.69;2089745;28;20227;-69
2022/07/06 11:19:13;;;;;;;13.50;3.05;;;;;;;25.75;36.42;97271.44;2110756;28;20206;-69
2022/07/06 11:20:18;;;;;;;10.82;2.55;;;;;;;25.26;37.03;97276.97;2097908;28;20230;-69
2022/07/06 11:21:22;;;;;;;6.95;2.67;;;;;;;25.78;36.56;97275.66;2094710;28;20204;-69
2022/07/06 11:22:26;;;;;;;10.23;3.42;;;;;;;25.48;37.26;97273.09;2094590;28;20200;-70
2022/07/06 11:23:28;;;;;;;8.95;2.60;;;;;;;25.97;37.18;97282.72;2093192;28;20224;-69
2022/07/06 11:24:32;;;;;;;5.22;2.78;;;;;;;25.29;38.34;97273.97;2094806;28;20278;-69
2022/07/06 11:25:33;;;;;;;9.23;3.67;;;;;;;26.08;37.15;97277.19;2094562;28;20207;-70
2022/07/06 11:26:36;;;;;;;7.00;3.15;;;;;;;26.44;35.68;97277.19;2093662;28;20195;-69
2022/07/06 11:27:42;;;;;;;10.10;2.50;;;;;;;26.79;35.49;97286.25;2082478;28;20685;-70
2022/07/06 11:28:47;;;;;;;8.60;2.55;;;;;;;26.92;34.80;97274.25;2105244;28;20194;-70
2022/07/06 11:29:49;;;;;;;9.68;3.10;;;;;;;26.18;35.39;97277.09;2099210;28;20187;-69
2022/07/06 11:30:52;;;;;;;6.50;2.67;;;;;;;26.38;35.92;97272.47;2089280;28;20679;-69
2022/07/06 11:31:55;;;;;;;7.38;2.38;;;;;;;26.89;35.42;97264.69;2088914;28;20333;-70
2022/07/06 11:32:57;;;;;;;12.55;2.45;;;;;;;26.94;35.44;97270.41;2085935;28;20219;-69
2022/07/06 11:33:58;;;;;;;10.60;3.38;;;;;;;26.99;35.21;97268.13;2103833;28;20206;-70
2022/07/06 11:35:00;;;;;;;12.55;2.92;;;;;;;26.82;34.70;97275.19;2097827;28;20562;-70
2022/07/06 11:36:19;;;;;;;19.30;3.50;;;;;;;26.73;35.46;97271.63;2088988;28;20204;-69
2022/07/06 11:37:23;;;;;;;7.28;3.25;;;;;;;26.97;35.20;97272.81;2089096;28;20192;-69
2022/07/06 11:38:25;;;;;;;8.73;2.58;;;;;;;26.66;35.49;97269.69;2092378;28;20669;-70
2022/07/06 11:39:28;;;;;;;5.55;2.75;;;;;;;26.53;35.21;97268.25;2105192;28;20278;-69
2022/07/06 11:40:29;;;;;;;8.98;2.67;;;;;;;27.05;34.73;97272.03;2089843;28;20211;-69
2022/07/06 11:41:31;;;;;;;8.25;2.90;;;;;;;26.96;34.43;97259.56;2089132;28;20675;-69
2022/07/06 11:42:32;;;;;;;5.18;2.33;;;;;;;26.53;35.21;97265.56;2087153;28;20188;-70
2022/07/06 11:43:34;;;;;;;7.18;2.90;;;;;;;26.30;35.51;97259.84;2089183;28;20196;-69
2022/07/06 11:44:37;;;;;;;6.10;1.95;;;;;;;26.20;35.71;97265.25;2089144;28;20196;-69
2022/07/06 11:45:39;;;;;;;5.75;2.47;;;;;;;25.72;36.12;97263.69;2089004;28;20239;-70
2022/07/06 11:46:40;;;;;;;7.97;3.00;;;;;;;25.82;36.24;97269.84;2088081;28;20212;-70
2022/07/06 11:47:42;;;;;;;6.72;2.72;;;;;;;26.24;35.44;97263.97;2081022;28;20287;-69
2022/07/06 11:48:50;;;;;;;7.05;2.33;;;;;;;26.33;35.00;97259.53;2105122;28;20194;-69
2022/07/06 11:49:52;;;;;;;6.43;2.38;;;;;;;26.70;35.14;97263.88;2099265;28;20229;-70
2022/07/06 11:51:02;;;;;;;6.72;2.30;;;;;;;27.48;34.31;97258.72;2087445;28;20720;-70
2022/07/06 11:52:11;;;;;;;14.48;2.20;;;;;;;27.56;33.24;97258.75;2089196;28;20203;-70
2022/07/06 11:53:15;;;;;;;7.30;2.42;;;;;;;27.76;33.19;97262.00;2090165;28;20222;-69
2022/07/06 11:54:22;;;;;;;8.32;2.05;;;;;;;27.27;33.55;97261.75;2105029;28;20224;-70
2022/07/06 11:55:23;;;;;;;7.97;2.13;;;;;;;27.40;33.91;97256.00;2091266;28;20687;-69
2022/07/06 11:56:27;;;;;;;11.18;2.45;;;;;;;27.41;33.43;97263.88;2089022;28;20203;-70
2022/07/06 11:57:31;;;;;;;10.65;3.25;;;;;;;26.92;33.97;97263.53;2088863;28;20197;-69
2022/07/06 11:58:34;;;;;;;8.82;2.55;;;;;;;27.24;33.17;97268.28;2078101;28;20213;-70
2022/07/06 11:59:37;;;;;;;6.10;2.35;;;;;;;27.12;33.58;97267.72;2080667;28;20219;-69
2022/07/06 12:00:39;;;;;;;5.68;1.95;;;;;;;27.52;32.67;97268.94;2079674;28;20644;-69
2022/07/06 12:01:44;;;;;;;8.15;2.83;;;;;;;27.09;33.83;97267.19;2080225;28;20247;-70
2022/07/06 12:03:00;;;;;;;5.35;2.22;;;;;;;27.15;33.19;97254.00;2079400;28;20556;-69
2022/07/06 12:04:07;;;;;;;12.98;2.60;;;;;;;26.52;33.85;97253.16;2080092;28;20200;-69
2022/07/06 12:05:09;;;;;;;7.22;2.30;;;;;;;27.10;33.69;97258.97;2079453;28;20197;-69
2022/07/06 12:06:24;;;;;;;8.43;2.70;;;;;;;26.91;34.16;97248.50;2080591;28;20236;-69
2022/07/06 12:07:25;;;;;;;13.70;3.05;;;;;;;26.31;35.02;97258.00;2074133;28;20271;-69
2022/07/06 12:08:27;;;;;;;8.35;2.55;;;;;;;26.47;35.28;97255.47;2074434;28;20228;-69
2022/07/06 12:09:32;;;;;;;5.82;1.73;;;;;;;27.36;33.83;97255.44;2096447;28;20195;-69
2022/07/06 12:10:37;;;;;;;17.33;2.92;;;;;;;27.32;33.30;97262.13;2080596;28;20594;-68
2022/07/06 12:11:40;;;;;;;31.25;20.13;;;;;;;27.62;32.50;97250.06;2080178;28;20197;-68
2022/07/06 12:12:42;;;;;;;11.48;5.30;;;;;;;27.72;32.36;97252.63;2072719;28;20201;-69
2022/07/06 12:13:43;;;;;;;14.48;7.60;;;;;;;27.30;33.30;97256.94;2096011;28;20226;-70
2022/07/06 12:14:45;;;;;;;10.93;2.67;;;;;;;26.40;33.66;97262.44;2093191;28;20196;-69
2022/07/06 12:15:46;;;;;;;9.27;2.38;;;;;;;25.52;36.04;97250.44;2080460;28;20197;-69
2022/07/06 12:16:49;;;;;;;7.88;2.10;;;;;;;25.18;36.39;97250.97;2080571;28;20626;-69
2022/07/06 12:17:51;;;;;;;7.40;2.47;;;;;;;25.47;36.27;97250.06;2075518;28;20260;-69
2022/07/06 12:18:52;;;;;;;17.73;2.47;;;;;;;25.51;35.52;97259.44;2096527;28;20192;-69
2022/07/06 12:19:55;;;;;;;9.98;2.28;;;;;;;26.07;35.14;97248.75;2089605;28;20201;-69
2022/07/06 12:20:57;;;;;;;7.05;2.28;;;;;;;26.36;34.38;97253.03;2080383;28;20287;-69
2022/07/06 12:22:01;;;;;;;7.90;2.40;;;;;;;26.18;34.92;97247.66;2080332;28;20656;-69
2022/07/06 12:23:07;;;;;;;5.93;2.30;;;;;;;26.46;34.61;97248.44;2079713;28;20221;-69
2022/07/06 12:24:09;;;;;;;7.45;2.17;;;;;;;26.13;34.72;97249.97;2079518;28;20232;-69
2022/07/06 12:25:10;;;;;;;5.65;2.00;;;;;;;25.82;35.52;97245.75;2080627;28;20201;-69
2022/07/06 12:26:14;;;;;;;6.93;2.20;;;;;;;25.69;35.98;97242.63;2080634;28;20524;-69
2022/07/06 12:27:18;;;;;;;10.15;2.55;;;;;;;25.56;36.03;97246.47;2079883;28;20205;-69
2022/07/06 12:28:23;;;;;;;9.90;2.15;;;;;;;26.20;35.33;97253.72;2076416;28;20220;-69
2022/07/06 12:29:25;;;;;;;5.47;1.58;;;;;;;26.42;34.50;97248.91;2095926;28;20192;-69
2022/07/06 12:30:27;;;;;;;11.13;2.20;;;;;;;26.20;35.31;97246.53;2080543;28;20204;-69
2022/07/06 12:31:36;;;;;;;6.65;1.90;;;;;;;26.61;34.26;97246.03;2079911;28;20200;-70
2022/07/06 12:32:38;;;;;;;8.07;1.65;;;;;;;26.42;34.86;97244.38;2071523;28;20208;-69
2022/07/06 12:33:55;;;;;;;9.13;1.95;;;;;;;27.42;33.57;97249.47;2096411;28;20203;-69
2022/07/06 12:35:07;;;;;;;7.05;2.20;;;;;;;27.80;32.65;97246.44;2089729;28;20197;-69
2022/07/06 12:36:11;;;;;;;6.60;1.95;;;;;;;28.05;32.35;97244.69;2080402;28;20208;-69
2022/07/06 12:37:13;;;;;;;5.00;1.90;;;;;;;27.60;32.71;97244.00;2080417;28;20213;-69
2022/07/06 12:38:22;;;;;;;11.38;2.10;;;;;;;28.04;31.99;97237.66;2081773;28;20219;-70
2022/07/06 12:39:26;;;;;;;5.82;1.77;;;;;;;27.50;32.66;97243.28;2093935;28;20207;-69
2022/07/06 12:40:29;;;;;;;4.75;1.80;;;;;;;27.42;33.26;97252.16;2081877;28;20215;-69
2022/07/06 12:41:33;;;;;;;9.43;2.38;;;;;;;27.59;32.65;97246.84;2080379;28;20563;-69
2022/07/06 12:42:34;;;;;;;5.57;1.90;;;;;;;27.50;32.14;97241.47;2079731;28;20769;-69
2022/07/06 12:43:40;;;;;;;4.97;1.98;;;;;;;27.73;31.73;97238.22;2080444;28;20201;-69
2022/07/06 12:44:48;;;;;;;7.25;2.25;;;;;;;28.12;31.48;97232.28;2078791;28;20196;-69
2022/07/06 12:45:49;;;;;;;7.43;2.03;;;;;;;28.49;30.83;97243.56;2079514;28;20861;-69
2022/07/06 12:47:03;;;;;;;2.95;1.45;;;;;;;28.59;30.95;97240.72;2078322;28;20263;-69
2022/07/06 12:48:05;;;;;;;5.47;1.65;;;;;;;28.49;31.36;97236.34;2078962;28;20215;-68
2022/07/06 12:49:16;;;;;;;5.50;1.70;;;;;;;28.31;31.12;97232.97;2087491;28;20279;-68
2022/07/06 12:50:17;;;;;;;6.32;2.60;;;;;;;27.72;31.82;97233.84;2079522;28;20212;-67
2022/07/06 12:51:19;;;;;;;8.15;2.13;;;;;;;27.86;32.53;97238.56;2079973;28;20197;-68
2022/07/06 12:52:20;;;;;;;4.15;1.75;;;;;;;27.33;32.60;97232.47;2080347;28;20200;-68
2022/07/06 12:53:26;;;;;;;13.50;2.35;;;;;;;25.86;34.41;97236.44;2083782;28;20329;-68
2022/07/06 12:54:35;;;;;;;7.10;2.00;;;;;;;25.49;35.04;97225.84;2095975;28;20204;-68
2022/07/06 12:55:37;;;;;;;7.53;2.45;;;;;;;25.83;35.12;97239.44;2080379;28;20201;-68
2022/07/06 12:57:06;;;;;;;4.70;1.60;;;;;;;26.19;34.83;97234.13;2080360;28;20200;-68
2022/07/06 12:58:18;;;;;;;7.35;2.05;;;;;;;26.51;33.73;97234.59;2079522;28;20220;-69
2022/07/06 12:59:23;;;;;;;7.90;1.63;;;;;;;26.66;34.10;97235.69;2095546;28;20200;-69
2022/07/06 13:00:25;;;;;;;7.47;2.30;;;;;;;27.25;33.34;97232.44;2081760;28;20769;-69
2022/07/06 13:01:27;;;;;;;13.05;1.88;;;;;;;27.12;33.14;97232.03;2080297;28;20197;-69
2022/07/06 13:02:37;;;;;;;8.18;2.40;;;;;;;25.58;34.79;97225.78;2078861;28;20255;-69
2022/07/06 13:03:58;;;;;;;10.05;2.40;;;;;;;25.75;35.58;97234.00;2079746;28;20716;-69
2022/07/06 13:05:08;;;;;;;9.68;1.73;;;;;;;26.17;34.46;97237.94;2080189;28;20200;-69
2022/07/06 13:06:10;;;;;;;9.45;1.88;;;;;;;25.44;35.69;97228.94;2080147;28;20220;-69
2022/07/06 13:07:19;;;;;;;2.30;1.30;;;;;;;26.11;34.93;97236.75;2079339;28;20197;-69
2022/07/06 13:08:21;;;;;;;4.47;1.70;;;;;;;25.72;35.13;97245.81;2083351;28;20722;-69
2022/07/06 13:09:22;;;;;;;4.72;1.80;;;;;;;25.77;35.54;97237.34;2087893;28;20266;-69
2022/07/06 13:10:25;;;;;;;6.03;1.98;;;;;;;25.70;35.18;97228.22;2080720;28;20216;-73
2022/07/06 13:11:26;;;;;;;5.32;1.92;;;;;;;26.13;35.03;97236.59;2080227;28;20690;-73
2022/07/06 13:12:28;;;;;;;11.95;2.30;;;;;;;26.39;34.50;97236.66;2080472;28;20204;-73
2022/07/06 13:13:44;;;;;;;7.65;2.40;;;;;;;26.04;34.98;97227.59;2079264;28;20571;-73
2022/07/06 13:14:45;;;;;;;6.85;2.05;;;;;;;25.25;35.95;97225.34;2079953;28;20252;-73
2022/07/06 13:15:47;;;;;;;8.60;1.83;;;;;;;26.15;35.24;97227.41;2080071;28;20632;-73
2022/07/06 13:16:49;;;;;;;7.05;1.90;;;;;;;26.40;34.65;97219.63;2080123;28;20193;-73
2022/07/06 13:17:50;;;;;;;9.25;1.83;;;;;;;25.70;35.47;97220.22;2075242;28;20753;-73
2022/07/06 13:18:52;;;;;;;6.15;1.50;;;;;;;25.77;35.20;97217.81;2096061;28;20278;-73
2022/07/06 13:19:53;;;;;;;8.73;1.85;;;;;;;25.79;34.45;97214.00;2090521;28;20303;-73
2022/07/06 13:20:55;;;;;;;5.28;1.80;;;;;;;25.64;35.30;97221.66;2080337;28;20201;-73
2022/07/06 13:21:56;;;;;;;3.72;1.50;;;;;;;25.61;35.59;97226.47;2080219;28;20250;-72
2022/07/06 13:22:58;;;;;;;9.90;2.13;;;;;;;25.76;35.01;97208.91;2078585;28;20216;-73
2022/07/06 13:23:59;;;;;;;7.90;1.90;;;;;;;26.09;34.14;97203.94;2080137;28;20204;-73
2022/07/06 13:25:01;;;;;;;3.60;1.58;;;;;;;26.03;33.82;97213.41;2080181;28;20197;-73
2022/07/06 13:26:03;;;;;;;8.55;1.60;;;;;;;25.91;34.00;97222.63;2079592;28;20197;-72
2022/07/06 13:27:05;;;;;;;5.93;1.77;;;;;;;25.87;34.92;97222.09;2079427;28;21077;-72